sensor_id;sensor_type;location;lat;lon;timestamp;P1;durP1;ratioP1;P2;durP2;ratioP2
67274;SDS011;55463;52.324;5.122;2023-06-14T00:00:36;5.93;;;2.70;;
67274;SDS011;55463;52.324;5.122;2023-06-14T00:03:04;7.85;;;2.75;;
67274;SDS011;55463;52.324;5.122;2023-06-14T00:05:29;4.88;;;2.90;;
67274;SDS011;55463;52.324;5.122;2023-06-14T00:08:00;8.32;;;2.85;;
67274;SDS011;55463;52.324;5.122;2023-06-14T00:10:26;7.45;;;2.95;;
67274;SDS011;55463;52.324;5.122;2023-06-14T00:12:55;8.98;;;2.60;;
67274;SDS011;55463;52.324;5.122;2023-06-14T00:15:21;4.10;;;2.92;;
67274;SDS011;55463;52.324;5.122;2023-06-14T00:17:48;8.45;;;2.92;;
67274;SDS011;55463;52.324;5.122;2023-06-14T00:20:14;11.43;;;3.03;;
67274;SDS011;55463;52.324;5.122;2023-06-14T00:22:39;7.93;;;3.13;;
67274;SDS011;55463;52.324;5.122;2023-06-14T00:25:04;15.77;;;3.10;;
67274;SDS011;55463;52.324;5.122;2023-06-14T00:27:31;8.25;;;2.67;;
67274;SDS011;55463;52.324;5.122;2023-06-14T00:29:56;7.25;;;2.75;;
67274;SDS011;55463;52.324;5.122;2023-06-14T00:32:23;11.05;;;2.97;;
67274;SDS011;55463;52.324;5.122;2023-06-14T00:34:50;12.13;;;2.78;;
67274;SDS011;55463;52.324;5.122;2023-06-14T00:37:16;3.35;;;2.42;;
67274;SDS011;55463;52.324;5.122;2023-06-14T00:39:41;6.63;;;2.75;;
67274;SDS011;55463;52.324;5.122;2023-06-14T00:42:07;12.15;;;3.03;;
67274;SDS011;55463;52.324;5.122;2023-06-14T00:44:32;6.15;;;3.00;;
67274;SDS011;55463;52.324;5.122;2023-06-14T00:46:57;6.28;;;2.95;;
67274;SDS011;55463;52.324;5.122;2023-06-14T00:49:23;14.48;;;3.78;;
67274;SDS011;55463;52.324;5.122;2023-06-14T00:51:49;4.32;;;2.60;;
67274;SDS011;55463;52.324;5.122;2023-06-14T00:54:15;6.95;;;2.50;;
67274;SDS011;55463;52.324;5.122;2023-06-14T00:56:40;5.70;;;2.92;;
67274;SDS011;55463;52.324;5.122;2023-06-14T00:59:11;6.07;;;2.80;;
67274;SDS011;55463;52.324;5.122;2023-06-14T01:01:37;10.40;;;2.72;;
67274;SDS011;55463;52.324;5.122;2023-06-14T01:04:03;9.27;;;2.80;;
67274;SDS011;55463;52.324;5.122;2023-06-14T01:09:18;4.70;;;2.60;;
67274;SDS011;55463;52.324;5.122;2023-06-14T01:12:01;8.20;;;2.80;;
67274;SDS011;55463;52.324;5.122;2023-06-14T01:14:41;3.50;;;2.60;;
67274;SDS011;55463;52.324;5.122;2023-06-14T01:17:07;7.75;;;2.20;;
67274;SDS011;55463;52.324;5.122;2023-06-14T01:19:40;7.72;;;3.00;;
67274;SDS011;55463;52.324;5.122;2023-06-14T01:22:07;8.77;;;2.67;;
67274;SDS011;55463;52.324;5.122;2023-06-14T01:24:33;3.17;;;2.47;;
67274;SDS011;55463;52.324;5.122;2023-06-14T01:26:59;6.70;;;2.92;;
67274;SDS011;55463;52.324;5.122;2023-06-14T01:29:27;6.70;;;2.50;;
67274;SDS011;55463;52.324;5.122;2023-06-14T01:31:57;9.65;;;2.55;;
67274;SDS011;55463;52.324;5.122;2023-06-14T01:34:23;7.32;;;2.72;;
67274;SDS011;55463;52.324;5.122;2023-06-14T01:36:49;6.40;;;2.20;;
67274;SDS011;55463;52.324;5.122;2023-06-14T01:39:15;8.15;;;2.85;;
67274;SDS011;55463;52.324;5.122;2023-06-14T01:41:42;8.57;;;3.33;;
67274;SDS011;55463;52.324;5.122;2023-06-14T01:44:09;7.05;;;2.63;;
67274;SDS011;55463;52.324;5.122;2023-06-14T01:46:35;10.55;;;2.60;;
67274;SDS011;55463;52.324;5.122;2023-06-14T01:49:01;5.07;;;2.67;;
67274;SDS011;55463;52.324;5.122;2023-06-14T01:51:27;7.85;;;2.85;;
67274;SDS011;55463;52.324;5.122;2023-06-14T01:53:52;6.00;;;2.58;;
67274;SDS011;55463;52.324;5.122;2023-06-14T01:56:18;6.90;;;2.70;;
67274;SDS011;55463;52.324;5.122;2023-06-14T01:58:43;5.30;;;2.45;;
67274;SDS011;55463;52.324;5.122;2023-06-14T02:01:08;9.07;;;2.80;;
67274;SDS011;55463;52.324;5.122;2023-06-14T02:03:34;6.18;;;2.97;;
67274;SDS011;55463;52.324;5.122;2023-06-14T02:05:59;10.40;;;3.65;;
67274;SDS011;55463;52.324;5.122;2023-06-14T02:08:25;3.40;;;2.42;;
67274;SDS011;55463;52.324;5.122;2023-06-14T02:10:50;7.10;;;2.53;;
67274;SDS011;55463;52.324;5.122;2023-06-14T02:13:16;5.70;;;2.70;;
67274;SDS011;55463;52.324;5.122;2023-06-14T02:15:41;8.07;;;2.67;;
67274;SDS011;55463;52.324;5.122;2023-06-14T02:18:09;4.95;;;2.92;;
67274;SDS011;55463;52.324;5.122;2023-06-14T02:20:35;7.22;;;2.40;;
67274;SDS011;55463;52.324;5.122;2023-06-14T02:23:00;6.53;;;2.35;;
67274;SDS011;55463;52.324;5.122;2023-06-14T02:25:26;6.65;;;2.63;;
67274;SDS011;55463;52.324;5.122;2023-06-14T02:27:53;6.32;;;2.60;;
67274;SDS011;55463;52.324;5.122;2023-06-14T02:30:19;3.55;;;2.35;;
67274;SDS011;55463;52.324;5.122;2023-06-14T02:32:45;7.97;;;2.80;;
67274;SDS011;55463;52.324;5.122;2023-06-14T02:35:11;4.05;;;2.47;;
67274;SDS011;55463;52.324;5.122;2023-06-14T02:37:38;6.43;;;2.80;;
67274;SDS011;55463;52.324;5.122;2023-06-14T02:40:04;7.95;;;2.95;;
67274;SDS011;55463;52.324;5.122;2023-06-14T02:42:30;5.20;;;2.20;;
67274;SDS011;55463;52.324;5.122;2023-06-14T02:44:56;10.95;;;2.80;;
67274;SDS011;55463;52.324;5.122;2023-06-14T02:47:21;5.28;;;2.70;;
67274;SDS011;55463;52.324;5.122;2023-06-14T02:49:46;4.45;;;2.45;;
67274;SDS011;55463;52.324;5.122;2023-06-14T02:52:12;12.30;;;2.58;;
67274;SDS011;55463;52.324;5.122;2023-06-14T02:54:37;3.35;;;2.60;;
67274;SDS011;55463;52.324;5.122;2023-06-14T02:57:03;8.75;;;2.63;;
67274;SDS011;55463;52.324;5.122;2023-06-14T02:59:28;12.43;;;3.28;;
67274;SDS011;55463;52.324;5.122;2023-06-14T03:01:54;12.23;;;2.38;;
67274;SDS011;55463;52.324;5.122;2023-06-14T03:04:20;7.57;;;3.00;;
67274;SDS011;55463;52.324;5.122;2023-06-14T03:06:45;11.50;;;3.13;;
67274;SDS011;55463;52.324;5.122;2023-06-14T03:09:15;6.07;;;2.50;;
67274;SDS011;55463;52.324;5.122;2023-06-14T03:11:41;4.28;;;2.78;;
67274;SDS011;55463;52.324;5.122;2023-06-14T03:14:06;5.60;;;2.17;;
67274;SDS011;55463;52.324;5.122;2023-06-14T03:16:33;4.97;;;2.33;;
67274;SDS011;55463;52.324;5.122;2023-06-14T03:18:59;5.25;;;2.50;;
67274;SDS011;55463;52.324;5.122;2023-06-14T03:21:24;4.78;;;2.50;;
67274;SDS011;55463;52.324;5.122;2023-06-14T03:23:50;10.52;;;3.17;;
67274;SDS011;55463;52.324;5.122;2023-06-14T03:26:17;6.45;;;2.95;;
67274;SDS011;55463;52.324;5.122;2023-06-14T03:28:46;3.95;;;2.58;;
67274;SDS011;55463;52.324;5.122;2023-06-14T03:31:13;7.35;;;2.72;;
67274;SDS011;55463;52.324;5.122;2023-06-14T03:33:39;11.00;;;3.00;;
67274;SDS011;55463;52.324;5.122;2023-06-14T03:36:05;4.25;;;2.45;;
67274;SDS011;55463;52.324;5.122;2023-06-14T03:38:31;6.38;;;2.55;;
67274;SDS011;55463;52.324;5.122;2023-06-14T03:40:57;6.53;;;2.47;;
67274;SDS011;55463;52.324;5.122;2023-06-14T03:43:22;10.02;;;2.50;;
67274;SDS011;55463;52.324;5.122;2023-06-14T03:45:50;8.40;;;2.60;;
67274;SDS011;55463;52.324;5.122;2023-06-14T03:48:15;7.18;;;2.88;;
67274;SDS011;55463;52.324;5.122;2023-06-14T03:50:41;6.97;;;2.65;;
67274;SDS011;55463;52.324;5.122;2023-06-14T03:53:07;4.00;;;2.40;;
67274;SDS011;55463;52.324;5.122;2023-06-14T03:55:32;4.75;;;2.45;;
67274;SDS011;55463;52.324;5.122;2023-06-14T03:57:58;14.82;;;2.67;;
67274;SDS011;55463;52.324;5.122;2023-06-14T04:00:24;5.57;;;2.47;;
67274;SDS011;55463;52.324;5.122;2023-06-14T04:02:50;9.82;;;2.50;;
67274;SDS011;55463;52.324;5.122;2023-06-14T04:05:16;7.35;;;2.60;;
67274;SDS011;55463;52.324;5.122;2023-06-14T04:07:44;11.45;;;2.40;;
67274;SDS011;55463;52.324;5.122;2023-06-14T04:10:10;5.00;;;2.90;;
67274;SDS011;55463;52.324;5.122;2023-06-14T04:12:40;4.55;;;3.03;;
67274;SDS011;55463;52.324;5.122;2023-06-14T04:15:06;11.65;;;2.90;;
67274;SDS011;55463;52.324;5.122;2023-06-14T04:17:33;5.95;;;2.90;;
67274;SDS011;55463;52.324;5.122;2023-06-14T04:19:59;4.95;;;2.75;;
67274;SDS011;55463;52.324;5.122;2023-06-14T04:22:25;5.72;;;2.53;;
67274;SDS011;55463;52.324;5.122;2023-06-14T04:24:53;4.28;;;2.83;;
67274;SDS011;55463;52.324;5.122;2023-06-14T04:27:21;9.57;;;2.67;;
67274;SDS011;55463;52.324;5.122;2023-06-14T04:29:50;5.55;;;2.40;;
67274;SDS011;55463;52.324;5.122;2023-06-14T04:32:22;6.28;;;3.10;;
67274;SDS011;55463;52.324;5.122;2023-06-14T04:34:51;11.75;;;2.72;;
67274;SDS011;55463;52.324;5.122;2023-06-14T04:37:23;8.15;;;2.60;;
67274;SDS011;55463;52.324;5.122;2023-06-14T04:39:48;6.55;;;2.63;;
67274;SDS011;55463;52.324;5.122;2023-06-14T04:42:15;6.20;;;3.20;;
67274;SDS011;55463;52.324;5.122;2023-06-14T04:44:41;7.05;;;3.00;;
67274;SDS011;55463;52.324;5.122;2023-06-14T04:47:10;9.00;;;2.60;;
67274;SDS011;55463;52.324;5.122;2023-06-14T04:49:41;7.85;;;2.78;;
67274;SDS011;55463;52.324;5.122;2023-06-14T04:52:06;7.80;;;2.70;;
67274;SDS011;55463;52.324;5.122;2023-06-14T04:54:32;9.82;;;2.67;;
67274;SDS011;55463;52.324;5.122;2023-06-14T04:56:58;5.55;;;2.83;;
67274;SDS011;55463;52.324;5.122;2023-06-14T04:59:24;5.60;;;2.60;;
67274;SDS011;55463;52.324;5.122;2023-06-14T05:01:50;5.38;;;2.60;;
67274;SDS011;55463;52.324;5.122;2023-06-14T05:04:16;5.85;;;2.92;;
67274;SDS011;55463;52.324;5.122;2023-06-14T05:06:43;11.73;;;2.83;;
67274;SDS011;55463;52.324;5.122;2023-06-14T05:09:13;3.47;;;2.72;;
67274;SDS011;55463;52.324;5.122;2023-06-14T05:11:39;11.75;;;3.10;;
67274;SDS011;55463;52.324;5.122;2023-06-14T05:14:07;13.48;;;2.80;;
67274;SDS011;55463;52.324;5.122;2023-06-14T05:16:32;4.80;;;2.60;;
67274;SDS011;55463;52.324;5.122;2023-06-14T05:18:58;8.65;;;2.55;;
67274;SDS011;55463;52.324;5.122;2023-06-14T05:21:23;3.58;;;2.55;;
67274;SDS011;55463;52.324;5.122;2023-06-14T05:23:49;5.57;;;2.85;;
67274;SDS011;55463;52.324;5.122;2023-06-14T05:26:15;6.35;;;2.83;;
67274;SDS011;55463;52.324;5.122;2023-06-14T05:28:41;5.03;;;2.78;;
67274;SDS011;55463;52.324;5.122;2023-06-14T05:31:06;6.55;;;2.47;;
67274;SDS011;55463;52.324;5.122;2023-06-14T05:33:32;6.53;;;2.67;;
67274;SDS011;55463;52.324;5.122;2023-06-14T05:35:57;9.43;;;2.83;;
67274;SDS011;55463;52.324;5.122;2023-06-14T05:38:22;8.57;;;3.05;;
67274;SDS011;55463;52.324;5.122;2023-06-14T05:40:48;11.30;;;2.70;;
67274;SDS011;55463;52.324;5.122;2023-06-14T05:43:13;4.50;;;2.40;;
67274;SDS011;55463;52.324;5.122;2023-06-14T05:45:38;5.72;;;2.80;;
67274;SDS011;55463;52.324;5.122;2023-06-14T05:48:04;8.80;;;2.70;;
67274;SDS011;55463;52.324;5.122;2023-06-14T05:50:30;3.45;;;2.53;;
67274;SDS011;55463;52.324;5.122;2023-06-14T05:52:58;5.28;;;2.80;;
67274;SDS011;55463;52.324;5.122;2023-06-14T05:55:24;12.80;;;3.00;;
67274;SDS011;55463;52.324;5.122;2023-06-14T05:57:50;6.22;;;2.60;;
67274;SDS011;55463;52.324;5.122;2023-06-14T06:00:15;7.53;;;2.67;;
67274;SDS011;55463;52.324;5.122;2023-06-14T06:02:42;9.23;;;2.70;;
67274;SDS011;55463;52.324;5.122;2023-06-14T06:05:08;3.30;;;2.55;;
67274;SDS011;55463;52.324;5.122;2023-06-14T06:07:34;7.72;;;3.13;;
67274;SDS011;55463;52.324;5.122;2023-06-14T06:10:00;7.20;;;2.90;;
67274;SDS011;55463;52.324;5.122;2023-06-14T06:12:25;5.72;;;3.00;;
67274;SDS011;55463;52.324;5.122;2023-06-14T06:14:50;9.43;;;4.03;;
67274;SDS011;55463;52.324;5.122;2023-06-14T06:17:16;6.20;;;2.70;;
67274;SDS011;55463;52.324;5.122;2023-06-14T06:19:41;10.32;;;2.83;;
67274;SDS011;55463;52.324;5.122;2023-06-14T06:22:06;5.15;;;3.10;;
67274;SDS011;55463;52.324;5.122;2023-06-14T06:24:33;10.50;;;2.80;;
67274;SDS011;55463;52.324;5.122;2023-06-14T06:26:58;16.77;;;2.85;;
67274;SDS011;55463;52.324;5.122;2023-06-14T06:29:23;8.63;;;2.80;;
67274;SDS011;55463;52.324;5.122;2023-06-14T06:31:49;15.30;;;3.25;;
67274;SDS011;55463;52.324;5.122;2023-06-14T06:34:14;15.00;;;2.95;;
67274;SDS011;55463;52.324;5.122;2023-06-14T06:36:40;7.65;;;2.80;;
67274;SDS011;55463;52.324;5.122;2023-06-14T06:39:05;9.60;;;3.05;;
67274;SDS011;55463;52.324;5.122;2023-06-14T06:41:38;6.72;;;2.80;;
67274;SDS011;55463;52.324;5.122;2023-06-14T06:44:07;10.73;;;2.63;;
67274;SDS011;55463;52.324;5.122;2023-06-14T06:46:34;4.22;;;2.80;;
67274;SDS011;55463;52.324;5.122;2023-06-14T06:49:04;8.95;;;3.33;;
67274;SDS011;55463;52.324;5.122;2023-06-14T06:51:30;6.00;;;2.50;;
67274;SDS011;55463;52.324;5.122;2023-06-14T06:53:55;4.47;;;2.60;;
67274;SDS011;55463;52.324;5.122;2023-06-14T06:56:21;7.75;;;2.42;;
67274;SDS011;55463;52.324;5.122;2023-06-14T06:58:48;10.60;;;2.75;;
67274;SDS011;55463;52.324;5.122;2023-06-14T07:01:17;9.73;;;2.47;;
67274;SDS011;55463;52.324;5.122;2023-06-14T07:03:44;9.65;;;2.80;;
67274;SDS011;55463;52.324;5.122;2023-06-14T07:06:10;7.38;;;2.70;;
67274;SDS011;55463;52.324;5.122;2023-06-14T07:08:36;8.23;;;2.80;;
67274;SDS011;55463;52.324;5.122;2023-06-14T07:11:03;4.63;;;2.28;;
67274;SDS011;55463;52.324;5.122;2023-06-14T07:13:31;3.90;;;2.53;;
67274;SDS011;55463;52.324;5.122;2023-06-14T07:16:00;5.43;;;2.72;;
67274;SDS011;55463;52.324;5.122;2023-06-14T07:18:25;8.45;;;2.63;;
67274;SDS011;55463;52.324;5.122;2023-06-14T07:20:52;4.63;;;2.47;;
67274;SDS011;55463;52.324;5.122;2023-06-14T07:23:18;9.18;;;2.60;;
67274;SDS011;55463;52.324;5.122;2023-06-14T07:25:44;5.38;;;2.70;;
67274;SDS011;55463;52.324;5.122;2023-06-14T07:28:09;5.30;;;2.80;;
67274;SDS011;55463;52.324;5.122;2023-06-14T07:30:35;8.45;;;2.30;;
67274;SDS011;55463;52.324;5.122;2023-06-14T07:33:00;12.85;;;3.00;;
67274;SDS011;55463;52.324;5.122;2023-06-14T07:35:26;13.50;;;3.00;;
67274;SDS011;55463;52.324;5.122;2023-06-14T07:37:51;14.35;;;3.03;;
67274;SDS011;55463;52.324;5.122;2023-06-14T07:40:16;14.90;;;3.20;;
67274;SDS011;55463;52.324;5.122;2023-06-14T07:42:42;6.68;;;2.72;;
67274;SDS011;55463;52.324;5.122;2023-06-14T07:45:07;16.52;;;3.42;;
67274;SDS011;55463;52.324;5.122;2023-06-14T07:47:33;19.65;;;3.20;;
67274;SDS011;55463;52.324;5.122;2023-06-14T07:49:58;7.53;;;2.92;;
67274;SDS011;55463;52.324;5.122;2023-06-14T07:52:24;6.45;;;2.50;;
67274;SDS011;55463;52.324;5.122;2023-06-14T07:54:50;6.18;;;2.47;;
67274;SDS011;55463;52.324;5.122;2023-06-14T07:57:15;7.07;;;2.45;;
67274;SDS011;55463;52.324;5.122;2023-06-14T07:59:40;5.13;;;2.70;;
67274;SDS011;55463;52.324;5.122;2023-06-14T08:02:06;7.90;;;2.28;;
67274;SDS011;55463;52.324;5.122;2023-06-14T08:04:32;19.00;;;3.05;;
67274;SDS011;55463;52.324;5.122;2023-06-14T08:06:58;11.52;;;2.60;;
67274;SDS011;55463;52.324;5.122;2023-06-14T08:09:26;8.88;;;2.55;;
67274;SDS011;55463;52.324;5.122;2023-06-14T08:11:53;8.25;;;2.63;;
67274;SDS011;55463;52.324;5.122;2023-06-14T08:14:19;4.50;;;2.50;;
67274;SDS011;55463;52.324;5.122;2023-06-14T08:16:44;10.18;;;2.67;;
67274;SDS011;55463;52.324;5.122;2023-06-14T08:19:10;7.40;;;2.70;;
67274;SDS011;55463;52.324;5.122;2023-06-14T08:21:35;6.57;;;2.70;;
67274;SDS011;55463;52.324;5.122;2023-06-14T08:24:01;5.63;;;2.42;;
67274;SDS011;55463;52.324;5.122;2023-06-14T08:26:27;3.10;;;2.33;;
67274;SDS011;55463;52.324;5.122;2023-06-14T08:28:56;5.53;;;2.40;;
67274;SDS011;55463;52.324;5.122;2023-06-14T08:31:22;4.32;;;2.40;;
67274;SDS011;55463;52.324;5.122;2023-06-14T08:33:49;6.43;;;2.20;;
67274;SDS011;55463;52.324;5.122;2023-06-14T08:36:14;5.65;;;2.40;;
67274;SDS011;55463;52.324;5.122;2023-06-14T08:38:40;4.80;;;2.15;;
67274;SDS011;55463;52.324;5.122;2023-06-14T08:41:05;3.92;;;2.00;;
67274;SDS011;55463;52.324;5.122;2023-06-14T08:43:31;10.07;;;2.08;;
67274;SDS011;55463;52.324;5.122;2023-06-14T08:46:01;13.60;;;2.25;;
67274;SDS011;55463;52.324;5.122;2023-06-14T08:48:28;3.05;;;2.00;;
67274;SDS011;55463;52.324;5.122;2023-06-14T08:50:55;12.80;;;2.55;;
67274;SDS011;55463;52.324;5.122;2023-06-14T08:53:27;6.50;;;2.63;;
67274;SDS011;55463;52.324;5.122;2023-06-14T08:55:54;5.40;;;2.40;;
67274;SDS011;55463;52.324;5.122;2023-06-14T08:58:20;7.95;;;2.50;;
67274;SDS011;55463;52.324;5.122;2023-06-14T09:00:49;2.20;;;2.00;;
67274;SDS011;55463;52.324;5.122;2023-06-14T09:03:17;7.15;;;2.10;;
67274;SDS011;55463;52.324;5.122;2023-06-14T09:05:45;5.95;;;2.53;;
67274;SDS011;55463;52.324;5.122;2023-06-14T09:08:12;6.70;;;1.90;;
67274;SDS011;55463;52.324;5.122;2023-06-14T09:10:37;3.80;;;2.00;;
67274;SDS011;55463;52.324;5.122;2023-06-14T09:13:08;2.95;;;1.92;;
67274;SDS011;55463;52.324;5.122;2023-06-14T09:15:36;5.18;;;1.85;;
67274;SDS011;55463;52.324;5.122;2023-06-14T09:18:03;2.65;;;2.08;;
67274;SDS011;55463;52.324;5.122;2023-06-14T09:20:29;5.22;;;2.28;;
67274;SDS011;55463;52.324;5.122;2023-06-14T09:22:55;7.13;;;1.80;;
67274;SDS011;55463;52.324;5.122;2023-06-14T09:25:21;7.68;;;2.25;;
67274;SDS011;55463;52.324;5.122;2023-06-14T09:27:47;4.10;;;2.28;;
67274;SDS011;55463;52.324;5.122;2023-06-14T09:30:13;12.88;;;2.53;;
67274;SDS011;55463;52.324;5.122;2023-06-14T09:32:39;10.02;;;2.30;;
67274;SDS011;55463;52.324;5.122;2023-06-14T09:35:08;2.33;;;1.95;;
67274;SDS011;55463;52.324;5.122;2023-06-14T09:37:34;5.25;;;2.00;;
67274;SDS011;55463;52.324;5.122;2023-06-14T09:40:00;4.13;;;2.10;;
67274;SDS011;55463;52.324;5.122;2023-06-14T09:42:26;2.03;;;1.75;;
67274;SDS011;55463;52.324;5.122;2023-06-14T09:44:53;10.65;;;2.17;;
67274;SDS011;55463;52.324;5.122;2023-06-14T09:47:20;4.95;;;1.88;;
67274;SDS011;55463;52.324;5.122;2023-06-14T09:49:46;6.90;;;2.22;;
67274;SDS011;55463;52.324;5.122;2023-06-14T09:52:18;8.27;;;2.33;;
67274;SDS011;55463;52.324;5.122;2023-06-14T09:54:45;3.53;;;1.63;;
67274;SDS011;55463;52.324;5.122;2023-06-14T09:57:12;3.85;;;1.73;;
67274;SDS011;55463;52.324;5.122;2023-06-14T09:59:43;5.05;;;1.90;;
67274;SDS011;55463;52.324;5.122;2023-06-14T10:02:34;7.15;;;2.25;;
67274;SDS011;55463;52.324;5.122;2023-06-14T10:05:05;6.50;;;1.77;;
67274;SDS011;55463;52.324;5.122;2023-06-14T10:07:44;2.55;;;2.00;;
67274;SDS011;55463;52.324;5.122;2023-06-14T10:10:17;6.45;;;2.35;;
67274;SDS011;55463;52.324;5.122;2023-06-14T10:12:42;9.10;;;2.42;;
67274;SDS011;55463;52.324;5.122;2023-06-14T10:15:09;6.90;;;2.03;;
67274;SDS011;55463;52.324;5.122;2023-06-14T10:17:41;6.53;;;2.00;;
67274;SDS011;55463;52.324;5.122;2023-06-14T10:22:51;14.38;;;2.50;;
67274;SDS011;55463;52.324;5.122;2023-06-14T10:25:27;4.65;;;1.80;;
67274;SDS011;55463;52.324;5.122;2023-06-14T10:28:02;7.97;;;2.00;;
67274;SDS011;55463;52.324;5.122;2023-06-14T10:30:37;4.03;;;2.05;;
67274;SDS011;55463;52.324;5.122;2023-06-14T10:38:07;3.50;;;2.05;;
67274;SDS011;55463;52.324;5.122;2023-06-14T10:40:37;4.68;;;1.75;;
67274;SDS011;55463;52.324;5.122;2023-06-14T10:43:22;4.35;;;1.63;;
67274;SDS011;55463;52.324;5.122;2023-06-14T10:46:30;10.15;;;2.10;;
67274;SDS011;55463;52.324;5.122;2023-06-14T10:48:41;3.72;;;1.80;;
67274;SDS011;55463;52.324;5.122;2023-06-14T10:51:29;2.60;;;1.83;;
67274;SDS011;55463;52.324;5.122;2023-06-14T10:53:55;2.65;;;1.90;;
67274;SDS011;55463;52.324;5.122;2023-06-14T10:56:26;4.85;;;1.67;;
67274;SDS011;55463;52.324;5.122;2023-06-14T10:58:53;6.15;;;1.80;;
67274;SDS011;55463;52.324;5.122;2023-06-14T11:01:23;6.43;;;1.80;;
67274;SDS011;55463;52.324;5.122;2023-06-14T11:04:12;7.07;;;1.95;;
67274;SDS011;55463;52.324;5.122;2023-06-14T11:06:47;4.40;;;2.00;;
67274;SDS011;55463;52.324;5.122;2023-06-14T11:11:45;2.83;;;1.75;;
67274;SDS011;55463;52.324;5.122;2023-06-14T11:14:11;5.72;;;2.20;;
67274;SDS011;55463;52.324;5.122;2023-06-14T11:16:37;1.70;;;1.60;;
67274;SDS011;55463;52.324;5.122;2023-06-14T11:19:02;4.95;;;1.85;;
67274;SDS011;55463;52.324;5.122;2023-06-14T11:21:34;4.15;;;2.15;;
67274;SDS011;55463;52.324;5.122;2023-06-14T11:24:09;3.72;;;1.83;;
67274;SDS011;55463;52.324;5.122;2023-06-14T11:26:37;2.90;;;1.90;;
67274;SDS011;55463;52.324;5.122;2023-06-14T11:29:02;4.25;;;1.95;;
67274;SDS011;55463;52.324;5.122;2023-06-14T11:31:28;4.90;;;1.77;;
67274;SDS011;55463;52.324;5.122;2023-06-14T11:33:54;2.67;;;1.85;;
67274;SDS011;55463;52.324;5.122;2023-06-14T11:36:21;7.57;;;1.75;;
67274;SDS011;55463;52.324;5.122;2023-06-14T11:38:47;8.48;;;2.00;;
67274;SDS011;55463;52.324;5.122;2023-06-14T11:41:13;4.95;;;2.00;;
67274;SDS011;55463;52.324;5.122;2023-06-14T11:43:39;5.03;;;1.85;;
67274;SDS011;55463;52.324;5.122;2023-06-14T11:46:13;6.03;;;1.80;;
67274;SDS011;55463;52.324;5.122;2023-06-14T11:48:41;3.70;;;1.88;;
67274;SDS011;55463;52.324;5.122;2023-06-14T11:51:07;6.28;;;2.00;;
67274;SDS011;55463;52.324;5.122;2023-06-14T11:53:32;7.50;;;2.03;;
67274;SDS011;55463;52.324;5.122;2023-06-14T11:55:58;8.13;;;1.95;;
67274;SDS011;55463;52.324;5.122;2023-06-14T11:58:25;7.80;;;1.95;;
67274;SDS011;55463;52.324;5.122;2023-06-14T12:00:51;5.70;;;1.92;;
67274;SDS011;55463;52.324;5.122;2023-06-14T12:03:18;3.58;;;1.98;;
67274;SDS011;55463;52.324;5.122;2023-06-14T12:05:48;2.17;;;1.67;;
67274;SDS011;55463;52.324;5.122;2023-06-14T12:08:13;2.95;;;1.80;;
67274;SDS011;55463;52.324;5.122;2023-06-14T12:10:42;4.90;;;1.98;;
67274;SDS011;55463;52.324;5.122;2023-06-14T12:13:08;3.55;;;1.92;;
67274;SDS011;55463;52.324;5.122;2023-06-14T12:15:34;4.60;;;1.90;;
67274;SDS011;55463;52.324;5.122;2023-06-14T12:17:59;5.47;;;1.80;;
67274;SDS011;55463;52.324;5.122;2023-06-14T12:20:29;1.60;;;1.50;;
67274;SDS011;55463;52.324;5.122;2023-06-14T12:23:02;6.82;;;1.75;;
67274;SDS011;55463;52.324;5.122;2023-06-14T12:28:07;7.57;;;2.00;;
67274;SDS011;55463;52.324;5.122;2023-06-14T12:30:34;3.83;;;1.88;;
67274;SDS011;55463;52.324;5.122;2023-06-14T12:33:01;9.20;;;2.20;;
67274;SDS011;55463;52.324;5.122;2023-06-14T12:35:27;4.93;;;1.73;;
67274;SDS011;55463;52.324;5.122;2023-06-14T12:37:53;2.95;;;1.67;;
67274;SDS011;55463;52.324;5.122;2023-06-14T12:40:18;1.95;;;1.75;;
67274;SDS011;55463;52.324;5.122;2023-06-14T12:42:44;6.95;;;1.70;;
67274;SDS011;55463;52.324;5.122;2023-06-14T12:45:12;2.40;;;1.85;;
67274;SDS011;55463;52.324;5.122;2023-06-14T12:47:37;1.60;;;1.50;;
67274;SDS011;55463;52.324;5.122;2023-06-14T12:50:03;3.33;;;1.90;;
67274;SDS011;55463;52.324;5.122;2023-06-14T12:52:29;6.15;;;2.00;;
67274;SDS011;55463;52.324;5.122;2023-06-14T12:54:55;7.07;;;2.25;;
67274;SDS011;55463;52.324;5.122;2023-06-14T12:57:22;2.25;;;1.90;;
67274;SDS011;55463;52.324;5.122;2023-06-14T12:59:48;4.82;;;1.70;;
67274;SDS011;55463;52.324;5.122;2023-06-14T13:02:17;3.28;;;1.63;;
67274;SDS011;55463;52.324;5.122;2023-06-14T13:04:43;7.00;;;1.83;;
67274;SDS011;55463;52.324;5.122;2023-06-14T13:07:08;2.17;;;1.70;;
67274;SDS011;55463;52.324;5.122;2023-06-14T13:09:35;1.70;;;1.60;;
67274;SDS011;55463;52.324;5.122;2023-06-14T13:12:01;3.70;;;1.80;;
67274;SDS011;55463;52.324;5.122;2023-06-14T13:14:26;2.63;;;1.77;;
67274;SDS011;55463;52.324;5.122;2023-06-14T13:16:52;3.67;;;1.67;;
67274;SDS011;55463;52.324;5.122;2023-06-14T13:19:17;6.13;;;2.10;;
67274;SDS011;55463;52.324;5.122;2023-06-14T13:21:43;1.83;;;1.73;;
67274;SDS011;55463;52.324;5.122;2023-06-14T13:24:08;6.45;;;1.70;;
67274;SDS011;55463;52.324;5.122;2023-06-14T13:26:34;1.70;;;1.60;;
67274;SDS011;55463;52.324;5.122;2023-06-14T13:28:59;3.45;;;1.88;;
67274;SDS011;55463;52.324;5.122;2023-06-14T13:31:25;7.35;;;1.77;;
67274;SDS011;55463;52.324;5.122;2023-06-14T13:33:50;7.65;;;1.90;;
67274;SDS011;55463;52.324;5.122;2023-06-14T13:36:15;9.65;;;2.00;;
67274;SDS011;55463;52.324;5.122;2023-06-14T13:38:41;3.17;;;1.80;;
67274;SDS011;55463;52.324;5.122;2023-06-14T13:41:06;2.80;;;2.08;;
67274;SDS011;55463;52.324;5.122;2023-06-14T13:43:32;5.05;;;1.60;;
67274;SDS011;55463;52.324;5.122;2023-06-14T13:45:57;2.67;;;1.70;;
67274;SDS011;55463;52.324;5.122;2023-06-14T13:48:23;4.25;;;1.80;;
67274;SDS011;55463;52.324;5.122;2023-06-14T13:50:48;3.15;;;1.83;;
67274;SDS011;55463;52.324;5.122;2023-06-14T13:53:14;7.80;;;1.73;;
67274;SDS011;55463;52.324;5.122;2023-06-14T13:55:39;2.72;;;1.70;;
67274;SDS011;55463;52.324;5.122;2023-06-14T13:58:05;11.00;;;1.88;;
67274;SDS011;55463;52.324;5.122;2023-06-14T14:00:30;3.72;;;1.77;;
67274;SDS011;55463;52.324;5.122;2023-06-14T14:02:55;4.93;;;2.25;;
67274;SDS011;55463;52.324;5.122;2023-06-14T14:05:22;2.35;;;1.73;;
67274;SDS011;55463;52.324;5.122;2023-06-14T14:07:53;3.53;;;1.80;;
67274;SDS011;55463;52.324;5.122;2023-06-14T14:10:19;4.55;;;1.80;;
67274;SDS011;55463;52.324;5.122;2023-06-14T14:12:45;1.85;;;1.60;;
67274;SDS011;55463;52.324;5.122;2023-06-14T14:15:11;7.53;;;2.13;;
67274;SDS011;55463;52.324;5.122;2023-06-14T14:17:38;4.82;;;2.35;;
67274;SDS011;55463;52.324;5.122;2023-06-14T14:20:04;2.28;;;1.90;;
67274;SDS011;55463;52.324;5.122;2023-06-14T14:22:30;2.60;;;1.60;;
67274;SDS011;55463;52.324;5.122;2023-06-14T14:24:55;8.52;;;1.95;;
67274;SDS011;55463;52.324;5.122;2023-06-14T14:27:20;2.00;;;1.90;;
67274;SDS011;55463;52.324;5.122;2023-06-14T14:29:46;3.63;;;1.80;;
67274;SDS011;55463;52.324;5.122;2023-06-14T14:32:11;3.25;;;1.90;;
67274;SDS011;55463;52.324;5.122;2023-06-14T14:34:39;1.80;;;1.70;;
67274;SDS011;55463;52.324;5.122;2023-06-14T14:37:04;5.82;;;1.90;;
67274;SDS011;55463;52.324;5.122;2023-06-14T14:39:30;4.38;;;1.98;;
67274;SDS011;55463;52.324;5.122;2023-06-14T14:41:55;2.47;;;2.10;;
67274;SDS011;55463;52.324;5.122;2023-06-14T14:44:21;3.22;;;1.70;;
67274;SDS011;55463;52.324;5.122;2023-06-14T14:46:46;2.58;;;1.80;;
67274;SDS011;55463;52.324;5.122;2023-06-14T14:49:12;6.20;;;1.60;;
67274;SDS011;55463;52.324;5.122;2023-06-14T14:51:37;2.03;;;1.80;;
67274;SDS011;55463;52.324;5.122;2023-06-14T14:54:03;5.18;;;1.70;;
67274;SDS011;55463;52.324;5.122;2023-06-14T14:56:29;2.95;;;1.95;;
67274;SDS011;55463;52.324;5.122;2023-06-14T14:58:55;4.32;;;1.92;;